sensor_id;sensor_type;location;lat;lon;timestamp;pressure;altitude;pressure_sealevel;temperature;humidity
32933;BME280;19444;50.518;10.870;2024-01-27T00:01:50;97944.06;;;1.68;100.00
32933;BME280;19444;50.518;10.870;2024-01-27T00:04:47;97952.84;;;1.30;100.00
32933;BME280;19444;50.518;10.870;2024-01-27T00:07:45;97935.88;;;1.45;100.00
32933;BME280;19444;50.518;10.870;2024-01-27T00:10:42;97928.44;;;2.28;100.00
32933;BME280;19444;50.518;10.870;2024-01-27T00:13:39;97923.09;;;2.16;100.00
32933;BME280;19444;50.518;10.870;2024-01-27T00:16:36;97925.22;;;2.26;100.00
32933;BME280;19444;50.518;10.870;2024-01-27T00:19:33;97937.31;;;2.40;100.00
32933;BME280;19444;50.518;10.870;2024-01-27T00:22:33;97936.13;;;2.54;100.00
32933;BME280;19444;50.518;10.870;2024-01-27T00:25:30;97929.22;;;2.10;100.00
32933;BME280;19444;50.518;10.870;2024-01-27T00:28:27;97926.19;;;2.13;100.00
32933;BME280;19444;50.518;10.870;2024-01-27T00:31:24;97936.09;;;2.18;100.00
32933;BME280;19444;50.518;10.870;2024-01-27T00:34:21;97950.84;;;2.07;100.00
32933;BME280;19444;50.518;10.870;2024-01-27T00:37:18;97952.34;;;1.71;100.00
32933;BME280;19444;50.518;10.870;2024-01-27T00:40:15;97949.13;;;1.69;100.00
32933;BME280;19444;50.518;10.870;2024-01-27T00:43:12;97952.69;;;1.57;100.00
32933;BME280;19444;50.518;10.870;2024-01-27T00:46:09;97966.38;;;1.40;100.00
32933;BME280;19444;50.518;10.870;2024-01-27T00:49:06;97962.47;;;1.50;100.00
32933;BME280;19444;50.518;10.870;2024-01-27T00:52:04;97974.22;;;1.54;100.00
32933;BME280;19444;50.518;10.870;2024-01-27T00:55:01;97982.59;;;1.51;100.00
32933;BME280;19444;50.518;10.870;2024-01-27T00:57:58;97979.13;;;1.50;100.00
32933;BME280;19444;50.518;10.870;2024-01-27T01:00:55;97978.13;;;1.45;100.00
32933;BME280;19444;50.518;10.870;2024-01-27T01:03:52;97977.56;;;1.36;100.00
32933;BME280;19444;50.518;10.870;2024-01-27T01:06:50;97974.22;;;1.22;100.00
32933;BME280;19444;50.518;10.870;2024-01-27T01:09:46;97979.84;;;1.32;100.00
32933;BME280;19444;50.518;10.870;2024-01-27T01:12:43;97980.16;;;1.11;100.00
32933;BME280;19444;50.518;10.870;2024-01-27T01:15:40;97988.69;;;1.13;100.00
32933;BME280;19444;50.518;10.870;2024-01-27T01:18:37;97997.16;;;1.28;100.00
32933;BME280;19444;50.518;10.870;2024-01-27T01:21:34;97996.81;;;1.50;100.00
32933;BME280;19444;50.518;10.870;2024-01-27T01:24:31;98001.78;;;1.33;100.00
32933;BME280;19444;50.518;10.870;2024-01-27T01:27:28;98009.81;;;1.06;100.00
32933;BME280;19444;50.518;10.870;2024-01-27T01:30:25;98012.34;;;0.81;100.00
32933;BME280;19444;50.518;10.870;2024-01-27T01:33:22;98011.31;;;1.34;100.00
32933;BME280;19444;50.518;10.870;2024-01-27T01:36:19;97994.91;;;1.25;100.00
32933;BME280;19444;50.518;10.870;2024-01-27T01:39:17;97996.84;;;1.05;100.00
32933;BME280;19444;50.518;10.870;2024-01-27T01:42:14;97998.66;;;0.46;100.00
32933;BME280;19444;50.518;10.870;2024-01-27T01:45:11;97994.78;;;1.13;100.00
32933;BME280;19444;50.518;10.870;2024-01-27T01:48:11;98004.75;;;1.05;100.00
32933;BME280;19444;50.518;10.870;2024-01-27T01:51:09;98001.22;;;1.87;100.00
32933;BME280;19444;50.518;10.870;2024-01-27T01:54:06;98017.69;;;1.20;100.00
32933;BME280;19444;50.518;10.870;2024-01-27T01:57:04;98019.56;;;1.12;100.00
32933;BME280;19444;50.518;10.870;2024-01-27T02:00:01;98022.34;;;1.24;100.00
32933;BME280;19444;50.518;10.870;2024-01-27T02:02:58;98024.22;;;1.87;100.00
32933;BME280;19444;50.518;10.870;2024-01-27T02:05:55;98029.06;;;1.58;100.00
32933;BME280;19444;50.518;10.870;2024-01-27T02:08:52;98035.56;;;1.18;100.00
32933;BME280;19444;50.518;10.870;2024-01-27T02:11:49;98036.81;;;1.53;100.00
32933;BME280;19444;50.518;10.870;2024-01-27T02:14:46;98042.75;;;0.97;100.00
32933;BME280;19444;50.518;10.870;2024-01-27T02:17:43;98041.78;;;0.85;100.00
32933;BME280;19444;50.518;10.870;2024-01-27T02:20:40;98037.47;;;0.97;100.00
32933;BME280;19444;50.518;10.870;2024-01-27T02:23:37;98041.72;;;0.98;100.00
32933;BME280;19444;50.518;10.870;2024-01-27T02:26:34;98045.06;;;0.61;100.00
32933;BME280;19444;50.518;10.870;2024-01-27T02:29:31;98051.41;;;0.00;100.00
32933;BME280;19444;50.518;10.870;2024-01-27T02:32:28;98048.53;;;0.68;100.00
32933;BME280;19444;50.518;10.870;2024-01-27T02:35:25;98058.84;;;0.69;100.00
32933;BME280;19444;50.518;10.870;2024-01-27T02:38:22;98058.03;;;0.75;100.00
32933;BME280;19444;50.518;10.870;2024-01-27T02:41:19;98063.16;;;0.57;100.00
32933;BME280;19444;50.518;10.870;2024-01-27T02:44:16;98061.91;;;0.66;100.00
32933;BME280;19444;50.518;10.870;2024-01-27T02:47:12;98060.31;;;0.59;100.00
32933;BME280;19444;50.518;10.870;2024-01-27T02:50:10;98057.66;;;-0.01;100.00
32933;BME280;19444;50.518;10.870;2024-01-27T02:53:07;98062.38;;;0.37;100.00
32933;BME280;19444;50.518;10.870;2024-01-27T02:56:07;98066.00;;;0.16;100.00
32933;BME280;19444;50.518;10.870;2024-01-27T02:59:05;98059.69;;;0.43;100.00
32933;BME280;19444;50.518;10.870;2024-01-27T03:02:02;98074.50;;;0.18;100.00
32933;BME280;19444;50.518;10.870;2024-01-27T03:05:00;98069.84;;;0.60;100.00
32933;BME280;19444;50.518;10.870;2024-01-27T03:07:57;98079.19;;;0.49;100.00
32933;BME280;19444;50.518;10.870;2024-01-27T03:10:54;98072.91;;;0.10;100.00
32933;BME280;19444;50.518;10.870;2024-01-27T03:13:51;98066.34;;;0.85;100.00
32933;BME280;19444;50.518;10.870;2024-01-27T03:16:48;98074.25;;;0.79;100.00
32933;BME280;19444;50.518;10.870;2024-01-27T03:19:45;98076.47;;;0.89;100.00
32933;BME280;19444;50.518;10.870;2024-01-27T03:22:45;98070.19;;;0.90;100.00
32933;BME280;19444;50.518;10.870;2024-01-27T03:25:42;98078.75;;;0.45;100.00
32933;BME280;19444;50.518;10.870;2024-01-27T03:28:39;98082.03;;;0.34;100.00
32933;BME280;19444;50.518;10.870;2024-01-27T03:31:36;98091.75;;;0.67;100.00
32933;BME280;19444;50.518;10.870;2024-01-27T03:34:33;98096.00;;;0.61;100.00
32933;BME280;19444;50.518;10.870;2024-01-27T03:37:30;98098.00;;;0.79;100.00
32933;BME280;19444;50.518;10.870;2024-01-27T03:40:27;98111.03;;;0.54;100.00
32933;BME280;19444;50.518;10.870;2024-01-27T03:43:24;98114.88;;;0.84;100.00
32933;BME280;19444;50.518;10.870;2024-01-27T03:46:20;98112.44;;;0.70;100.00
32933;BME280;19444;50.518;10.870;2024-01-27T03:49:17;98111.38;;;0.97;100.00
32933;BME280;19444;50.518;10.870;2024-01-27T03:52:14;98111.84;;;0.61;100.00
32933;BME280;19444;50.518;10.870;2024-01-27T03:55:11;98115.91;;;0.50;100.00
32933;BME280;19444;50.518;10.870;2024-01-27T03:58:08;98118.53;;;0.57;100.00
32933;BME280;19444;50.518;10.870;2024-01-27T04:01:05;98124.63;;;0.57;100.00
32933;BME280;19444;50.518;10.870;2024-01-27T04:04:02;98135.16;;;0.11;100.00
32933;BME280;19444;50.518;10.870;2024-01-27T04:06:59;98121.56;;;0.61;100.00
32933;BME280;19444;50.518;10.870;2024-01-27T04:09:58;98117.09;;;0.81;100.00
32933;BME280;19444;50.518;10.870;2024-01-27T04:12:55;98127.59;;;1.07;100.00
32933;BME280;19444;50.518;10.870;2024-01-27T04:15:52;98128.47;;;0.68;100.00
32933;BME280;19444;50.518;10.870;2024-01-27T04:18:51;98136.19;;;0.83;100.00
32933;BME280;19444;50.518;10.870;2024-01-27T04:21:48;98142.25;;;0.64;100.00
32933;BME280;19444;50.518;10.870;2024-01-27T04:24:45;98147.72;;;0.82;100.00
32933;BME280;19444;50.518;10.870;2024-01-27T04:27:41;98141.03;;;0.86;100.00
32933;BME280;19444;50.518;10.870;2024-01-27T04:30:41;98144.09;;;0.70;100.00
32933;BME280;19444;50.518;10.870;2024-01-27T04:33:38;98137.81;;;0.51;100.00
32933;BME280;19444;50.518;10.870;2024-01-27T04:36:36;98138.63;;;0.78;100.00
32933;BME280;19444;50.518;10.870;2024-01-27T04:39:33;98143.22;;;1.09;100.00
32933;BME280;19444;50.518;10.870;2024-01-27T04:42:32;98151.59;;;0.93;100.00
32933;BME280;19444;50.518;10.870;2024-01-27T04:45:29;98146.75;;;0.70;100.00
32933;BME280;19444;50.518;10.870;2024-01-27T04:48:26;98149.13;;;1.11;100.00
32933;BME280;19444;50.518;10.870;2024-01-27T04:51:23;98147.69;;;1.22;100.00
32933;BME280;19444;50.518;10.870;2024-01-27T04:54:20;98148.78;;;0.74;100.00
32933;BME280;19444;50.518;10.870;2024-01-27T04:57:17;98144.69;;;0.72;100.00
32933;BME280;19444;50.518;10.870;2024-01-27T05:00:14;98148.97;;;0.86;100.00
32933;BME280;19444;50.518;10.870;2024-01-27T05:03:12;98150.38;;;0.89;100.00
32933;BME280;19444;50.518;10.870;2024-01-27T05:06:11;98151.59;;;0.79;100.00
32933;BME280;19444;50.518;10.870;2024-01-27T05:09:08;98150.78;;;0.85;100.00
32933;BME280;19444;50.518;10.870;2024-01-27T05:12:05;98150.78;;;0.85;100.00
32933;BME280;19444;50.518;10.870;2024-01-27T05:15:02;98158.72;;;0.66;100.00
32933;BME280;19444;50.518;10.870;2024-01-27T05:17:59;98161.94;;;0.28;100.00
32933;BME280;19444;50.518;10.870;2024-01-27T05:20:56;98167.63;;;0.45;100.00
32933;BME280;19444;50.518;10.870;2024-01-27T05:23:53;98174.31;;;1.07;100.00
32933;BME280;19444;50.518;10.870;2024-01-27T05:26:51;98176.38;;;0.65;100.00
32933;BME280;19444;50.518;10.870;2024-01-27T05:29:48;98182.19;;;0.14;100.00
32933;BME280;19444;50.518;10.870;2024-01-27T05:32:46;98190.56;;;0.44;100.00
32933;BME280;19444;50.518;10.870;2024-01-27T05:35:43;98190.78;;;0.56;100.00
32933;BME280;19444;50.518;10.870;2024-01-27T05:38:40;98193.72;;;0.00;100.00
32933;BME280;19444;50.518;10.870;2024-01-27T05:41:37;98179.41;;;0.42;100.00
32933;BME280;19444;50.518;10.870;2024-01-27T05:44:34;98184.88;;;0.54;100.00
32933;BME280;19444;50.518;10.870;2024-01-27T05:47:31;98182.66;;;0.57;100.00
32933;BME280;19444;50.518;10.870;2024-01-27T05:50:28;98183.06;;;0.48;100.00
32933;BME280;19444;50.518;10.870;2024-01-27T05:53:27;98175.31;;;0.33;100.00
32933;BME280;19444;50.518;10.870;2024-01-27T05:56:24;98181.63;;;0.45;100.00
32933;BME280;19444;50.518;10.870;2024-01-27T05:59:21;98190.72;;;0.23;100.00
32933;BME280;19444;50.518;10.870;2024-01-27T06:02:18;98190.94;;;0.28;100.00
32933;BME280;19444;50.518;10.870;2024-01-27T06:05:15;98193.38;;;1.16;100.00
32933;BME280;19444;50.518;10.870;2024-01-27T06:08:13;98188.53;;;0.46;100.00
32933;BME280;19444;50.518;10.870;2024-01-27T06:11:10;98195.22;;;0.29;100.00
32933;BME280;19444;50.518;10.870;2024-01-27T06:14:07;98196.06;;;0.82;100.00
32933;BME280;19444;50.518;10.870;2024-01-27T06:17:04;98209.41;;;0.41;100.00
32933;BME280;19444;50.518;10.870;2024-01-27T06:20:02;98215.03;;;0.12;100.00
32933;BME280;19444;50.518;10.870;2024-01-27T06:23:00;98207.41;;;0.50;100.00
32933;BME280;19444;50.518;10.870;2024-01-27T06:25:57;98212.59;;;0.17;100.00
32933;BME280;19444;50.518;10.870;2024-01-27T06:28:54;98211.63;;;0.31;100.00
32933;BME280;19444;50.518;10.870;2024-01-27T06:31:51;98222.16;;;0.24;100.00
32933;BME280;19444;50.518;10.870;2024-01-27T06:34:48;98222.53;;;0.15;100.00
32933;BME280;19444;50.518;10.870;2024-01-27T06:37:45;98226.31;;;-0.08;100.00
32933;BME280;19444;50.518;10.870;2024-01-27T06:40:42;98215.88;;;-0.29;100.00
32933;BME280;19444;50.518;10.870;2024-01-27T06:43:39;98224.06;;;0.77;100.00
32933;BME280;19444;50.518;10.870;2024-01-27T06:46:36;98220.19;;;0.53;100.00
32933;BME280;19444;50.518;10.870;2024-01-27T06:49:33;98229.44;;;0.16;100.00
32933;BME280;19444;50.518;10.870;2024-01-27T06:52:30;98234.41;;;0.59;100.00
32933;BME280;19444;50.518;10.870;2024-01-27T06:55:27;98242.19;;;0.06;100.00
32933;BME280;19444;50.518;10.870;2024-01-27T06:58:24;98238.69;;;-0.02;100.00
32933;BME280;19444;50.518;10.870;2024-01-27T07:01:21;98234.28;;;0.06;100.00
32933;BME280;19444;50.518;10.870;2024-01-27T07:04:18;98241.72;;;0.56;100.00
32933;BME280;19444;50.518;10.870;2024-01-27T07:07:15;98240.78;;;0.10;100.00
32933;BME280;19444;50.518;10.870;2024-01-27T07:10:12;98251.50;;;0.02;100.00
32933;BME280;19444;50.518;10.870;2024-01-27T07:13:09;98250.53;;;0.09;100.00
32933;BME280;19444;50.518;10.870;2024-01-27T07:16:06;98250.41;;;-0.11;100.00
32933;BME280;19444;50.518;10.870;2024-01-27T07:19:03;98266.50;;;0.01;100.00
32933;BME280;19444;50.518;10.870;2024-01-27T07:22:00;98255.72;;;0.90;100.00
32933;BME280;19444;50.518;10.870;2024-01-27T07:24:57;98260.75;;;-0.16;100.00
32933;BME280;19444;50.518;10.870;2024-01-27T07:27:54;98257.63;;;0.15;100.00
32933;BME280;19444;50.518;10.870;2024-01-27T07:30:52;98271.41;;;0.11;100.00
32933;BME280;19444;50.518;10.870;2024-01-27T07:33:49;98265.66;;;-0.06;100.00
32933;BME280;19444;50.518;10.870;2024-01-27T07:36:46;98270.13;;;-0.07;100.00
32933;BME280;19444;50.518;10.870;2024-01-27T07:39:44;98264.28;;;0.05;100.00
32933;BME280;19444;50.518;10.870;2024-01-27T07:42:41;98262.03;;;0.02;100.00
32933;BME280;19444;50.518;10.870;2024-01-27T07:45:38;98269.88;;;-0.12;100.00
32933;BME280;19444;50.518;10.870;2024-01-27T07:48:35;98273.44;;;0.15;100.00
32933;BME280;19444;50.518;10.870;2024-01-27T07:51:33;98263.75;;;-0.25;100.00
32933;BME280;19444;50.518;10.870;2024-01-27T07:54:30;98265.94;;;0.12;100.00
32933;BME280;19444;50.518;10.870;2024-01-27T07:57:29;98276.50;;;0.19;100.00
32933;BME280;19444;50.518;10.870;2024-01-27T08:00:26;98276.88;;;0.09;100.00
32933;BME280;19444;50.518;10.870;2024-01-27T08:03:23;98282.88;;;-0.04;100.00
32933;BME280;19444;50.518;10.870;2024-01-27T08:06:28;98281.19;;;-0.24;100.00
32933;BME280;19444;50.518;10.870;2024-01-27T08:09:29;98289.38;;;-0.06;100.00
32933;BME280;19444;50.518;10.870;2024-01-27T08:12:26;98287.56;;;-0.06;100.00
32933;BME280;19444;50.518;10.870;2024-01-27T08:15:23;98283.91;;;-0.05;100.00
32933;BME280;19444;50.518;10.870;2024-01-27T08:18:20;98281.03;;;-0.10;100.00
32933;BME280;19444;50.518;10.870;2024-01-27T08:21:17;98282.53;;;0.06;100.00
32933;BME280;19444;50.518;10.870;2024-01-27T08:24:14;98287.31;;;-0.11;100.00
32933;BME280;19444;50.518;10.870;2024-01-27T08:27:11;98278.13;;;-0.21;100.00
32933;BME280;19444;50.518;10.870;2024-01-27T08:30:09;98293.28;;;-0.30;100.00
32933;BME280;19444;50.518;10.870;2024-01-27T08:33:06;98293.03;;;-0.07;100.00
32933;BME280;19444;50.518;10.870;2024-01-27T08:36:04;98282.84;;;0.38;100.00
32933;BME280;19444;50.518;10.870;2024-01-27T08:39:01;98286.63;;;0.15;100.00
32933;BME280;19444;50.518;10.870;2024-01-27T08:41:58;98284.03;;;0.35;100.00
32933;BME280;19444;50.518;10.870;2024-01-27T08:44:55;98296.41;;;0.28;100.00
32933;BME280;19444;50.518;10.870;2024-01-27T08:47:52;98283.00;;;0.23;100.00
32933;BME280;19444;50.518;10.870;2024-01-27T08:50:49;98281.28;;;0.70;100.00
32933;BME280;19444;50.518;10.870;2024-01-27T08:53:46;98289.41;;;0.55;100.00
32933;BME280;19444;50.518;10.870;2024-01-27T08:56:45;98294.50;;;0.90;100.00
32933;BME280;19444;50.518;10.870;2024-01-27T08:59:42;98306.25;;;0.61;100.00
32933;BME280;19444;50.518;10.870;2024-01-27T09:02:39;98305.06;;;0.90;100.00
32933;BME280;19444;50.518;10.870;2024-01-27T09:05:36;98299.94;;;0.55;100.00
32933;BME280;19444;50.518;10.870;2024-01-27T09:08:34;98315.44;;;0.98;100.00
32933;BME280;19444;50.518;10.870;2024-01-27T09:11:33;98321.16;;;1.41;100.00
32933;BME280;19444;50.518;10.870;2024-01-27T09:14:31;98317.69;;;1.01;100.00
32933;BME280;19444;50.518;10.870;2024-01-27T09:17:30;98312.22;;;1.35;100.00
32933;BME280;19444;50.518;10.870;2024-01-27T09:20:27;98318.31;;;1.42;100.00
32933;BME280;19444;50.518;10.870;2024-01-27T09:23:24;98322.50;;;1.90;100.00
32933;BME280;19444;50.518;10.870;2024-01-27T09:26:21;98322.53;;;1.70;100.00
32933;BME280;19444;50.518;10.870;2024-01-27T09:29:19;98317.63;;;1.87;100.00
32933;BME280;19444;50.518;10.870;2024-01-27T09:32:17;98324.41;;;1.56;100.00
32933;BME280;19444;50.518;10.870;2024-01-27T09:35:14;98320.06;;;1.88;100.00
32933;BME280;19444;50.518;10.870;2024-01-27T09:38:11;98327.66;;;1.32;100.00
32933;BME280;19444;50.518;10.870;2024-01-27T09:41:13;98318.06;;;1.64;100.00
32933;BME280;19444;50.518;10.870;2024-01-27T09:44:12;98319.72;;;1.19;100.00
32933;BME280;19444;50.518;10.870;2024-01-27T09:47:11;98321.78;;;1.30;100.00
32933;BME280;19444;50.518;10.870;2024-01-27T09:50:11;98315.63;;;1.62;100.00
32933;BME280;19444;50.518;10.870;2024-01-27T09:53:08;98312.41;;;1.67;100.00
32933;BME280;19444;50.518;10.870;2024-01-27T09:56:06;98319.91;;;1.70;100.00
32933;BME280;19444;50.518;10.870;2024-01-27T09:59:05;98320.06;;;1.88;100.00
32933;BME280;19444;50.518;10.870;2024-01-27T10:02:04;98312.97;;;1.82;100.00
32933;BME280;19444;50.518;10.870;2024-01-27T10:05:03;98311.16;;;2.41;100.00
32933;BME280;19444;50.518;10.870;2024-01-27T10:08:01;98309.56;;;2.33;100.00
32933;BME280;19444;50.518;10.870;2024-01-27T10:10:58;98309.78;;;2.25;100.00
32933;BME280;19444;50.518;10.870;2024-01-27T10:13:56;98305.22;;;2.45;100.00
32933;BME280;19444;50.518;10.870;2024-01-27T10:16:55;98299.56;;;3.05;100.00
32933;BME280;19444;50.518;10.870;2024-01-27T10:20:05;98299.41;;;2.68;100.00
32933;BME280;19444;50.518;10.870;2024-01-27T10:23:13;98304.25;;;2.40;100.00
32933;BME280;19444;50.518;10.870;2024-01-27T10:26:11;98313.97;;;2.46;100.00
32933;BME280;19444;50.518;10.870;2024-01-27T10:29:08;98308.06;;;3.13;100.00
32933;BME280;19444;50.518;10.870;2024-01-27T10:32:10;98316.19;;;2.87;100.00
32933;BME280;19444;50.518;10.870;2024-01-27T10:35:08;98311.72;;;2.88;100.00
32933;BME280;19444;50.518;10.870;2024-01-27T10:38:05;98300.03;;;3.02;100.00
32933;BME280;19444;50.518;10.870;2024-01-27T10:41:08;98313.47;;;3.25;100.00
32933;BME280;19444;50.518;10.870;2024-01-27T10:44:07;98309.03;;;5.02;100.00
32933;BME280;19444;50.518;10.870;2024-01-27T10:47:07;98302.78;;;5.50;100.00
32933;BME280;19444;50.518;10.870;2024-01-27T10:50:09;98305.13;;;4.75;100.00
32933;BME280;19444;50.518;10.870;2024-01-27T10:53:23;98298.50;;;7.05;100.00
32933;BME280;19444;50.518;10.870;2024-01-27T10:56:31;98295.31;;;6.63;100.00
32933;BME280;19444;50.518;10.870;2024-01-27T10:59:29;98302.78;;;7.56;100.00
32933;BME280;19444;50.518;10.870;2024-01-27T11:02:33;98295.13;;;7.43;100.00
32933;BME280;19444;50.518;10.870;2024-01-27T11:05:31;98292.03;;;6.72;100.00
32933;BME280;19444;50.518;10.870;2024-01-27T11:08:34;98293.00;;;7.28;100.00
32933;BME280;19444;50.518;10.870;2024-01-27T11:11:31;98294.47;;;7.53;100.00
32933;BME280;19444;50.518;10.870;2024-01-27T11:14:29;98296.19;;;6.80;100.00
32933;BME280;19444;50.518;10.870;2024-01-27T11:17:26;98296.59;;;8.50;97.75
32933;BME280;19444;50.518;10.870;2024-01-27T11:20:23;98300.31;;;6.59;100.00
32933;BME280;19444;50.518;10.870;2024-01-27T11:23:20;98289.84;;;7.31;100.00
32933;BME280;19444;50.518;10.870;2024-01-27T11:26:27;98290.84;;;6.80;100.00
32933;BME280;19444;50.518;10.870;2024-01-27T11:29:28;98294.28;;;6.64;100.00
32933;BME280;19444;50.518;10.870;2024-01-27T11:32:26;98293.88;;;5.91;100.00
32933;BME280;19444;50.518;10.870;2024-01-27T11:35:24;98303.31;;;6.22;100.00
32933;BME280;19444;50.518;10.870;2024-01-27T11:38:21;98292.56;;;6.86;100.00
32933;BME280;19444;50.518;10.870;2024-01-27T11:41:26;98283.22;;;5.91;100.00
32933;BME280;19444;50.518;10.870;2024-01-27T11:44:23;98277.75;;;7.24;100.00
32933;BME280;19444;50.518;10.870;2024-01-27T11:47:20;98295.50;;;7.18;100.00
32933;BME280;19444;50.518;10.870;2024-01-27T11:50:20;98293.72;;;6.62;100.00
32933;BME280;19444;50.518;10.870;2024-01-27T11:53:17;98286.84;;;7.11;100.00
32933;BME280;19444;50.518;10.870;2024-01-27T11:56:14;98289.13;;;7.36;100.00
32933;BME280;19444;50.518;10.870;2024-01-27T11:59:11;98284.91;;;7.40;100.00
32933;BME280;19444;50.518;10.870;2024-01-27T12:02:08;98284.03;;;8.07;100.00
32933;BME280;19444;50.518;10.870;2024-01-27T12:05:06;98292.16;;;6.94;100.00
32933;BME280;19444;50.518;10.870;2024-01-27T12:08:03;98295.81;;;6.60;100.00
32933;BME280;19444;50.518;10.870;2024-01-27T12:11:00;98304.84;;;6.07;100.00
32933;BME280;19444;50.518;10.870;2024-01-27T12:13:57;98299.22;;;6.72;100.00
32933;BME280;19444;50.518;10.870;2024-01-27T12:16:55;98303.63;;;6.38;100.00
32933;BME280;19444;50.518;10.870;2024-01-27T12:19:52;98307.72;;;6.17;100.00
32933;BME280;19444;50.518;10.870;2024-01-27T12:22:50;98298.78;;;5.18;100.00
32933;BME280;19444;50.518;10.870;2024-01-27T12:25:58;98305.78;;;5.77;100.00
32933;BME280;19444;50.518;10.870;2024-01-27T12:28:55;98304.38;;;5.39;100.00
32933;BME280;19444;50.518;10.870;2024-01-27T12:31:52;98303.91;;;5.42;100.00
32933;BME280;19444;50.518;10.870;2024-01-27T12:34:51;98310.72;;;4.85;100.00
32933;BME280;19444;50.518;10.870;2024-01-27T12:37:49;98311.59;;;5.09;100.00
32933;BME280;19444;50.518;10.870;2024-01-27T12:40:46;98307.28;;;4.66;100.00
32933;BME280;19444;50.518;10.870;2024-01-27T12:43:43;98313.78;;;4.70;100.00
32933;BME280;19444;50.518;10.870;2024-01-27T12:46:40;98313.06;;;5.70;100.00
32933;BME280;19444;50.518;10.870;2024-01-27T12:49:38;98321.94;;;4.87;100.00
32933;BME280;19444;50.518;10.870;2024-01-27T12:52:36;98306.75;;;5.06;100.00
32933;BME280;19444;50.518;10.870;2024-01-27T12:55:33;98310.94;;;4.83;100.00
32933;BME280;19444;50.518;10.870;2024-01-27T12:58:30;98308.81;;;5.04;100.00
32933;BME280;19444;50.518;10.870;2024-01-27T13:01:29;98305.31;;;3.95;100.00
32933;BME280;19444;50.518;10.870;2024-01-27T13:04:26;98291.31;;;4.54;100.00
32933;BME280;19444;50.518;10.870;2024-01-27T13:07:23;98285.34;;;4.59;100.00
32933;BME280;19444;50.518;10.870;2024-01-27T13:10:20;98289.81;;;4.28;100.00
32933;BME280;19444;50.518;10.870;2024-01-27T13:13:17;98282.66;;;4.29;100.00
32933;BME280;19444;50.518;10.870;2024-01-27T13:16:14;98278.06;;;4.96;100.00
32933;BME280;19444;50.518;10.870;2024-01-27T13:19:11;98283.44;;;4.48;100.00
32933;BME280;19444;50.518;10.870;2024-01-27T13:22:08;98276.41;;;4.53;100.00
32933;BME280;19444;50.518;10.870;2024-01-27T13:25:05;98266.31;;;5.04;100.00
32933;BME280;19444;50.518;10.870;2024-01-27T13:28:05;98275.34;;;5.14;100.00
32933;BME280;19444;50.518;10.870;2024-01-27T13:31:04;98268.53;;;5.42;100.00
32933;BME280;19444;50.518;10.870;2024-01-27T13:34:01;98275.13;;;5.51;100.00
32933;BME280;19444;50.518;10.870;2024-01-27T13:36:59;98269.91;;;5.45;100.00
32933;BME280;19444;50.518;10.870;2024-01-27T13:40:00;98279.03;;;5.25;100.00
32933;BME280;19444;50.518;10.870;2024-01-27T13:42:57;98294.88;;;5.32;100.00
32933;BME280;19444;50.518;10.870;2024-01-27T13:45:55;98302.97;;;5.37;100.00
32933;BME280;19444;50.518;10.870;2024-01-27T13:48:52;98293.16;;;5.37;100.00
32933;BME280;19444;50.518;10.870;2024-01-27T13:51:50;98285.34;;;5.01;100.00
32933;BME280;19444;50.518;10.870;2024-01-27T13:54:46;98272.19;;;4.94;100.00
32933;BME280;19444;50.518;10.870;2024-01-27T13:57:44;98272.13;;;5.36;100.00
32933;BME280;19444;50.518;10.870;2024-01-27T14:00:41;98275.97;;;4.87;100.00
32933;BME280;19444;50.518;10.870;2024-01-27T14:03:38;98288.13;;;4.64;100.00
32933;BME280;19444;50.518;10.870;2024-01-27T14:06:35;98288.94;;;4.65;100.00
32933;BME280;19444;50.518;10.870;2024-01-27T14:09:33;98287.41;;;4.87;100.00
32933;BME280;19444;50.518;10.870;2024-01-27T14:12:31;98280.66;;;4.84;100.00
32933;BME280;19444;50.518;10.870;2024-01-27T14:15:28;98285.47;;;4.94;100.00
32933;BME280;19444;50.518;10.870;2024-01-27T14:18:25;98274.72;;;5.01;100.00
32933;BME280;19444;50.518;10.870;2024-01-27T14:21:22;98273.84;;;4.47;100.00
32933;BME280;19444;50.518;10.870;2024-01-27T14:24:20;98274.63;;;4.17;100.00
32933;BME280;19444;50.518;10.870;2024-01-27T14:27:17;98268.81;;;4.57;100.00
32933;BME280;19444;50.518;10.870;2024-01-27T14:30:17;98273.44;;;4.32;100.00
32933;BME280;19444;50.518;10.870;2024-01-27T14:33:14;98278.09;;;3.99;100.00
32933;BME280;19444;50.518;10.870;2024-01-27T14:36:17;98284.22;;;4.00;100.00
32933;BME280;19444;50.518;10.870;2024-01-27T14:39:14;98290.09;;;4.20;100.00
32933;BME280;19444;50.518;10.870;2024-01-27T14:42:12;98293.72;;;3.89;100.00
32933;BME280;19444;50.518;10.870;2024-01-27T14:45:09;98288.94;;;4.16;100.00
32933;BME280;19444;50.518;10.870;2024-01-27T14:48:07;98297.09;;;3.60;100.00
32933;BME280;19444;50.518;10.870;2024-01-27T14:51:04;98281.03;;;3.91;100.00
32933;BME280;19444;50.518;10.870;2024-01-27T14:54:06;98292.22;;;3.57;100.00
32933;BME280;19444;50.518;10.870;2024-01-27T14:57:04;98293.38;;;3.42;100.00
32933;BME280;19444;50.518;10.870;2024-01-27T15:00:02;98284.69;;;3.54;100.00
32933;BME280;19444;50.518;10.870;2024-01-27T15:02:59;98293.50;;;3.29;100.00
32933;BME280;19444;50.518;10.870;2024-01-27T15:05:57;98287.16;;;3.74;100.00
32933;BME280;19444;50.518;10.870;2024-01-27T15:08:55;98287.66;;;3.64;100.00
32933;BME280;19444;50.518;10.870;2024-01-27T15:11:52;98297.91;;;3.35;100.00
32933;BME280;19444;50.518;10.870;2024-01-27T15:14:49;98300.91;;;3.21;100.00
32933;BME280;19444;50.518;10.870;2024-01-27T15:17:46;98300.81;;;3.02;100.00
32933;BME280;19444;50.518;10.870;2024-01-27T15:20:43;98295.53;;;3.27;100.00
32933;BME280;19444;50.518;10.870;2024-01-27T15:23:40;98291.34;;;3.63;100.00
32933;BME280;19444;50.518;10.870;2024-01-27T15:26:37;98284.09;;;3.52;100.00
32933;BME280;19444;50.518;10.870;2024-01-27T15:29:34;98294.16;;;2.93;100.00